Time;durP1;ratioP1;P1;durP2;ratioP2;P2;SDS_P1;SDS_P2;PMS_P1;PMS_P2;Temp;Humidity;BMP_temperature;BMP_pressure;BME280_temperature;BME280_humidity;BME280_pressure;Samples;Min_cycle;Max_cycle;Signal;HPM_P1;HPM_P2
2023/04/09 00:01:10;;;;;;;;;;;;;;;5.59;90.76;102889.03;4985366;28;19983;-73
2023/04/09 00:03:37;;;;;;;;;;;;;;;5.54;90.81;102886.91;5002711;28;20411;-72
2023/04/09 00:06:03;;;;;;;;;;;;;;;5.48;90.70;102884.97;5003690;28;19960;-71
2023/04/09 00:08:29;;;;;;;;;;;;;;;5.46;90.80;102887.81;4981918;28;20080;-74
2023/04/09 00:10:58;;;;;;;;;;;;;;;5.46;90.90;102889.66;4985408;28;19948;-72
2023/04/09 00:13:24;;;;;;;;;;;;;;;5.45;91.04;102893.31;4994382;28;19956;-73
2023/04/09 00:15:49;;;;;;;;;;;;;;;5.47;91.05;102886.81;5002401;28;20792;-71
2023/04/09 00:18:15;;;;;;;;;;;;;;;5.46;91.17;102889.66;4997091;28;19936;-72
2023/04/09 00:20:42;;;;;;;;;;;;;;;5.44;91.21;102886.38;5001982;28;19943;-75
2023/04/09 00:23:16;;;;;;;;;;;;;;;5.41;91.06;102887.53;5001121;28;19955;-71
2023/04/09 00:25:41;;;;;;;;;;;;;;;5.43;90.95;102882.06;5001621;28;20002;-73
2023/04/09 00:28:07;;;;;;;;;;;;;;;5.39;91.08;102889.56;4996525;28;20462;-72
2023/04/09 00:30:36;;;;;;;;;;;;;;;5.42;91.40;102883.91;4989884;28;19938;-72
2023/04/09 00:33:02;;;;;;;;;;;;;;;5.44;91.05;102889.03;4993304;28;19960;-72
2023/04/09 00:35:27;;;;;;;;;;;;;;;5.41;91.20;102881.41;4984881;28;19944;-74
2023/04/09 00:37:53;;;;;;;;;;;;;;;5.38;90.99;102881.78;5002904;28;19936;-72
2023/04/09 00:40:18;;;;;;;;;;;;;;;5.35;91.41;102879.47;4988656;28;19978;-73
2023/04/09 00:42:44;;;;;;;;;;;;;;;5.34;91.17;102875.16;5005237;28;20343;-71
2023/04/09 00:45:10;;;;;;;;;;;;;;;5.33;91.40;102871.69;4982620;28;20006;-71
2023/04/09 00:47:35;;;;;;;;;;;;;;;5.37;91.65;102875.63;4998669;28;19944;-71
2023/04/09 00:50:01;;;;;;;;;;;;;;;5.36;91.86;102874.00;5003754;28;19947;-71
2023/04/09 00:52:29;;;;;;;;;;;;;;;5.43;91.51;102866.94;5015257;28;19955;-71
2023/04/09 00:54:55;;;;;;;;;;;;;;;5.45;91.49;102880.03;4996075;28;20036;-71
2023/04/09 00:57:20;;;;;;;;;;;;;;;5.51;91.26;102876.66;4988825;28;20039;-71
2023/04/09 00:59:46;;;;;;;;;;;;;;;5.48;91.15;102874.34;5020434;28;20894;-71
2023/04/09 01:02:11;;;;;;;;;;;;;;;5.45;91.46;102867.56;4990768;28;19956;-71
2023/04/09 01:04:39;;;;;;;;;;;;;;;5.43;91.10;102874.09;4997361;28;20343;-73
2023/04/09 01:07:08;;;;;;;;;;;;;;;5.39;91.25;102872.78;4999269;28;19937;-69
2023/04/09 01:09:35;;;;;;;;;;;;;;;5.39;91.32;102873.63;4966733;28;19941;-70
2023/04/09 01:12:01;;;;;;;;;;;;;;;5.39;91.64;102872.78;5004358;28;19945;-71
2023/04/09 01:14:31;;;;;;;;;;;;;;;5.39;91.69;102875.44;5005454;28;19937;-71
2023/04/09 01:17:05;;;;;;;;;;;;;;;5.45;91.86;102877.38;4987551;28;19941;-71
2023/04/09 01:19:40;;;;;;;;;;;;;;;5.47;91.93;102878.84;5005172;28;19937;-70
2023/04/09 01:22:09;;;;;;;;;;;;;;;5.49;91.90;102876.00;4985584;28;19960;-70
2023/04/09 01:24:35;;;;;;;;;;;;;;;5.52;91.85;102872.97;5002303;28;19955;-74
2023/04/09 01:27:00;;;;;;;;;;;;;;;5.51;91.49;102875.81;5025828;28;19944;-70
2023/04/09 01:29:34;;;;;;;;;;;;;;;5.51;92.06;102874.00;4998653;28;19941;-73
2023/04/09 01:32:05;;;;;;;;;;;;;;;5.53;91.73;102869.31;4990566;28;20453;-72
2023/04/09 01:34:31;;;;;;;;;;;;;;;5.52;91.52;102872.97;4987366;28;19963;-70
2023/04/09 01:37:02;;;;;;;;;;;;;;;5.51;91.51;102871.34;4998403;28;19944;-71
2023/04/09 01:39:28;;;;;;;;;;;;;;;5.52;91.52;102866.84;5005759;28;19930;-71
2023/04/09 01:41:55;;;;;;;;;;;;;;;5.46;91.74;102863.06;5005045;28;20735;-71
2023/04/09 01:44:23;;;;;;;;;;;;;;;5.44;91.98;102862.44;5000091;28;20055;-72
2023/04/09 01:46:49;;;;;;;;;;;;;;;5.50;91.48;102868.88;5019666;28;20740;-72
2023/04/09 01:49:15;;;;;;;;;;;;;;;5.41;91.68;102860.97;5003543;28;19948;-70
2023/04/09 01:51:42;;;;;;;;;;;;;;;5.46;91.87;102865.72;4979573;28;20036;-72
2023/04/09 01:54:07;;;;;;;;;;;;;;;5.49;91.52;102862.72;4981235;28;19955;-72
2023/04/09 01:57:00;;;;;;;;;;;;;;;5.45;91.71;102861.44;4984388;28;19933;-71
2023/04/09 01:59:25;;;;;;;;;;;;;;;5.41;91.85;102860.13;5000440;28;20034;-70
2023/04/09 02:01:58;;;;;;;;;;;;;;;5.46;91.98;102863.91;4990083;28;19998;-70
2023/04/09 02:04:31;;;;;;;;;;;;;;;5.43;91.96;102858.16;5015547;28;20012;-71
2023/04/09 02:07:14;;;;;;;;;;;;;;;5.37;92.19;102856.22;5015390;28;19953;-72
2023/04/09 02:09:40;;;;;;;;;;;;;;;5.38;91.99;102852.56;5001823;28;19942;-71
2023/04/09 02:12:10;;;;;;;;;;;;;;;5.44;92.02;102855.28;4984748;28;20007;-71
2023/04/09 02:14:37;;;;;;;;;;;;;;;5.45;91.87;102850.81;4982181;28;20021;-71
2023/04/09 02:17:03;;;;;;;;;;;;;;;5.44;91.97;102849.97;5002390;28;20027;-71
2023/04/09 02:19:42;;;;;;;;;;;;;;;5.40;91.92;102853.19;5007128;28;20344;-72
2023/04/09 02:22:08;;;;;;;;;;;;;;;5.40;92.35;102853.19;4988084;28;20012;-71
2023/04/09 02:24:33;;;;;;;;;;;;;;;5.41;92.30;102844.19;5005140;28;20541;-71
2023/04/09 02:27:01;;;;;;;;;;;;;;;5.45;92.42;102848.16;4989209;28;19999;-72
2023/04/09 02:29:27;;;;;;;;;;;;;;;5.41;92.40;102849.50;5020513;28;19940;-71
2023/04/09 02:31:56;;;;;;;;;;;;;;;5.36;92.04;102843.94;4990189;28;19990;-71
2023/04/09 02:34:22;;;;;;;;;;;;;;;5.36;92.57;102843.94;5008499;28;19938;-71
2023/04/09 02:36:47;;;;;;;;;;;;;;;5.36;92.51;102846.59;4977741;28;19940;-70
2023/04/09 02:39:13;;;;;;;;;;;;;;;5.39;92.61;102846.22;5002340;28;19946;-72
2023/04/09 02:41:39;;;;;;;;;;;;;;;5.41;92.61;102846.84;5017006;28;19938;-70
2023/04/09 02:44:04;;;;;;;;;;;;;;;5.41;91.90;102839.69;5001680;28;19972;-72
2023/04/09 02:46:30;;;;;;;;;;;;;;;5.40;92.09;102837.25;5003473;28;19936;-71
2023/04/09 02:48:56;;;;;;;;;;;;;;;5.42;92.01;102830.75;5000559;28;19937;-71
2023/04/09 02:51:21;;;;;;;;;;;;;;;5.45;92.71;102830.38;4997074;28;20893;-71
2023/04/09 02:53:47;;;;;;;;;;;;;;;5.46;92.18;102828.53;5001557;28;19991;-71
2023/04/09 02:56:13;;;;;;;;;;;;;;;5.46;92.08;102836.50;4996376;28;19941;-69
2023/04/09 02:58:38;;;;;;;;;;;;;;;5.41;92.40;102834.38;4982880;28;20041;-70
2023/04/09 03:01:04;;;;;;;;;;;;;;;5.43;92.08;102826.25;4998313;28;20916;-71
2023/04/09 03:03:30;;;;;;;;;;;;;;;5.41;92.23;102817.63;5002701;28;19952;-71
2023/04/09 03:05:55;;;;;;;;;;;;;;;5.42;91.97;102827.28;5005171;28;19974;-72
2023/04/09 03:08:21;;;;;;;;;;;;;;;5.39;92.27;102823.13;4967395;28;19936;-73
2023/04/09 03:10:46;;;;;;;;;;;;;;;5.40;92.02;102821.28;4998907;28;20539;-72
2023/04/09 03:13:12;;;;;;;;;;;;;;;5.39;92.21;102825.78;5012839;28;19953;-71
2023/04/09 03:15:37;;;;;;;;;;;;;;;5.39;92.28;102822.31;5002062;28;19965;-72
2023/04/09 03:18:05;;;;;;;;;;;;;;;5.52;92.02;102825.13;4990901;28;20348;-71
2023/04/09 03:20:30;;;;;;;;;;;;;;;5.47;91.87;102822.19;5015963;28;19938;-70
2023/04/09 03:22:56;;;;;;;;;;;;;;;5.43;91.66;102816.44;4985835;28;20038;-72
2023/04/09 03:25:36;;;;;;;;;;;;;;;5.41;91.79;102817.63;4974934;28;19955;-71
2023/04/09 03:28:10;;;;;;;;;;;;;;;5.43;92.03;102815.63;4993683;28;19941;-72
2023/04/09 03:30:42;;;;;;;;;;;;;;;5.46;91.84;102815.25;4992763;28;19935;-70
2023/04/09 03:33:11;;;;;;;;;;;;;;;5.46;91.66;102812.59;5011134;28;19957;-71
2023/04/09 03:35:48;;;;;;;;;;;;;;;5.50;91.45;102811.22;4994706;28;20052;-71
2023/04/09 03:38:16;;;;;;;;;;;;;;;5.44;91.67;102818.09;4997923;28;19940;-71
2023/04/09 03:40:42;;;;;;;;;;;;;;;5.46;91.94;102821.38;5001298;28;20020;-72
2023/04/09 03:43:08;;;;;;;;;;;;;;;5.45;92.07;102819.75;4985725;28;20035;-71
2023/04/09 03:45:36;;;;;;;;;;;;;;;5.43;92.35;102818.28;5013367;28;20104;-70
2023/04/09 03:48:14;;;;;;;;;;;;;;;5.39;91.87;102822.31;5002029;28;19935;-71
2023/04/09 03:50:40;;;;;;;;;;;;;;;5.41;92.16;102822.94;5004849;28;19952;-73
2023/04/09 03:53:11;;;;;;;;;;;;;;;5.40;92.00;102815.97;4991920;28;19954;-71
2023/04/09 03:55:37;;;;;;;;;;;;;;;5.43;92.43;102810.31;5002273;28;19947;-71
2023/04/09 03:58:07;;;;;;;;;;;;;;;5.40;92.45;102810.66;4972790;28;20756;-70
2023/04/09 04:00:35;;;;;;;;;;;;;;;5.39;92.37;102811.69;5006608;28;20416;-71
2023/04/09 04:03:30;;;;;;;;;;;;;;;5.40;92.33;102811.50;5005057;28;19962;-71
2023/04/09 04:06:09;;;;;;;;;;;;;;;5.43;92.30;102815.63;4999672;28;19984;-72
2023/04/09 04:08:59;;;;;;;;;;;;;;;5.41;92.28;102812.31;4979316;28;19983;-71
2023/04/09 04:11:34;;;;;;;;;;;;;;;5.43;92.05;102818.28;5002068;28;19984;-73
2023/04/09 04:13:59;;;;;;;;;;;;;;;5.41;91.87;102817.63;4996686;28;19955;-72
2023/04/09 04:16:25;;;;;;;;;;;;;;;5.41;92.38;102820.28;4983812;28;20014;-72
2023/04/09 04:18:52;;;;;;;;;;;;;;;5.41;91.78;102823.75;4979315;28;20548;-71
2023/04/09 04:21:18;;;;;;;;;;;;;;;5.43;91.88;102819.09;4984959;28;19935;-72
2023/04/09 04:23:52;;;;;;;;;;;;;;;5.40;91.78;102822.13;4994725;28;19959;-73
2023/04/09 04:26:23;;;;;;;;;;;;;;;5.41;92.31;102823.75;4991974;28;20508;-72
2023/04/09 04:28:49;;;;;;;;;;;;;;;5.39;91.95;102824.97;5005612;28;19941;-72
2023/04/09 04:31:30;;;;;;;;;;;;;;;5.37;91.94;102825.16;5001772;28;20406;-72
2023/04/09 04:33:57;;;;;;;;;;;;;;;5.39;91.95;102824.97;5014000;28;19957;-73
2023/04/09 04:36:23;;;;;;;;;;;;;;;5.38;91.86;102833.94;4993713;28;20039;-72
2023/04/09 04:38:50;;;;;;;;;;;;;;;5.38;91.78;102833.94;4998390;28;19938;-72
2023/04/09 04:41:23;;;;;;;;;;;;;;;5.39;91.86;102819.66;4988536;28;19999;-71
2023/04/09 04:44:05;;;;;;;;;;;;;;;5.38;91.92;102821.47;5014392;28;19977;-72
2023/04/09 04:46:31;;;;;;;;;;;;;;;5.39;91.91;102830.28;5006690;28;19959;-72
2023/04/09 04:48:57;;;;;;;;;;;;;;;5.41;92.10;102828.25;4984685;28;19945;-72
2023/04/09 04:51:22;;;;;;;;;;;;;;;5.54;91.54;102824.94;5004742;28;19973;-72
2023/04/09 04:53:59;;;;;;;;;;;;;;;5.42;91.71;102829.94;4991950;28;20407;-72
2023/04/09 04:56:25;;;;;;;;;;;;;;;5.40;92.22;102823.94;5003602;28;19940;-72
2023/04/09 04:59:00;;;;;;;;;;;;;;;5.42;92.16;102824.63;4992778;28;20330;-71
2023/04/09 05:01:31;;;;;;;;;;;;;;;5.43;91.82;102827.06;4984494;28;19938;-71
2023/04/09 05:03:57;;;;;;;;;;;;;;;5.43;92.06;102832.41;4981908;28;19960;-73
2023/04/09 05:06:32;;;;;;;;;;;;;;;5.43;92.00;102831.56;4988622;28;20452;-74
2023/04/09 05:09:01;;;;;;;;;;;;;;;5.48;91.65;102829.97;4986043;28;19945;-73
2023/04/09 05:11:34;;;;;;;;;;;;;;;5.47;91.71;102827.53;4990204;28;19944;-73
2023/04/09 05:14:02;;;;;;;;;;;;;;;5.49;91.91;102836.16;4986151;28;19957;-71
2023/04/09 05:16:27;;;;;;;;;;;;;;;5.51;91.81;102834.13;5005842;28;19941;-71
2023/04/09 05:19:01;;;;;;;;;;;;;;;5.57;91.22;102835.22;5001760;28;19938;-72
2023/04/09 05:21:26;;;;;;;;;;;;;;;5.60;91.70;102835.66;5004425;28;19994;-71
2023/04/09 05:23:54;;;;;;;;;;;;;;;5.54;91.78;102839.06;4984604;28;19961;-72
2023/04/09 05:26:20;;;;;;;;;;;;;;;5.58;91.59;102828.91;4997953;28;19935;-72
2023/04/09 05:28:53;;;;;;;;;;;;;;;5.57;91.66;102833.38;4990508;28;19936;-71
2023/04/09 05:31:20;;;;;;;;;;;;;;;5.61;91.46;102839.16;5002467;28;19944;-74
2023/04/09 05:33:52;;;;;;;;;;;;;;;5.58;91.51;102840.34;4994535;28;19958;-73
2023/04/09 05:36:23;;;;;;;;;;;;;;;5.61;91.41;102839.97;5001263;28;19944;-71
2023/04/09 05:38:50;;;;;;;;;;;;;;;5.68;91.55;102843.53;4997444;28;20462;-72
2023/04/09 05:41:15;;;;;;;;;;;;;;;5.58;90.62;102844.84;4999826;28;19943;-72
2023/04/09 05:44:04;;;;;;;;;;;;;;;5.62;90.86;102851.41;4999602;28;20060;-74
2023/04/09 05:46:30;;;;;;;;;;;;;;;5.66;90.92;102850.88;4981271;28;19937;-72
2023/04/09 05:48:56;;;;;;;;;;;;;;;5.70;90.78;102854.00;4989195;28;19937;-74
2023/04/09 05:51:24;;;;;;;;;;;;;;;5.67;90.83;102855.19;5002268;28;19934;-72
2023/04/09 05:53:49;;;;;;;;;;;;;;;5.68;90.86;102846.19;5012299;28;20809;-72
2023/04/09 05:56:15;;;;;;;;;;;;;;;5.72;90.58;102850.13;4983068;28;19951;-71
2023/04/09 05:58:50;;;;;;;;;;;;;;;5.74;90.64;102850.75;4989641;28;20421;-71
2023/04/09 06:01:16;;;;;;;;;;;;;;;5.74;90.92;102849.94;4996694;28;20429;-72
2023/04/09 06:03:42;;;;;;;;;;;;;;;5.73;90.43;102848.31;4992593;28;19959;-72
2023/04/09 06:06:08;;;;;;;;;;;;;;;5.75;90.71;102852.41;4985188;28;20011;-71
2023/04/09 06:08:33;;;;;;;;;;;;;;;5.75;90.58;102852.41;5021515;28;19936;-71
2023/04/09 06:10:59;;;;;;;;;;;;;;;5.77;90.66;102851.44;4989496;28;19971;-73
2023/04/09 06:13:25;;;;;;;;;;;;;;;5.80;90.88;102859.03;5003019;28;20317;-72
2023/04/09 06:15:51;;;;;;;;;;;;;;;5.82;90.64;102851.66;4989651;28;20668;-70
2023/04/09 06:18:16;;;;;;;;;;;;;;;5.81;90.92;102855.34;5000470;28;19944;-72
2023/04/09 06:20:42;;;;;;;;;;;;;;;5.85;90.01;102853.97;4999917;28;19943;-71
2023/04/09 06:23:07;;;;;;;;;;;;;;;5.89;90.24;102852.56;4995573;28;19997;-72
2023/04/09 06:25:34;;;;;;;;;;;;;;;5.96;89.98;102858.81;4995763;28;19952;-70
2023/04/09 06:28:00;;;;;;;;;;;;;;;5.99;89.73;102863.78;4994133;28;19946;-72
2023/04/09 06:30:25;;;;;;;;;;;;;;;6.03;89.37;102870.38;4993673;28;20026;-71
2023/04/09 06:32:51;;;;;;;;;;;;;;;6.06;89.51;102866.53;5001702;28;19959;-70
2023/04/09 06:35:16;;;;;;;;;;;;;;;6.14;89.06;102861.06;5003065;28;19946;-72
2023/04/09 06:37:42;;;;;;;;;;;;;;;6.25;88.67;102865.91;5012210;28;19946;-72
2023/04/09 06:40:07;;;;;;;;;;;;;;;6.21;88.66;102861.97;5007609;28;19945;-71
2023/04/09 06:42:33;;;;;;;;;;;;;;;6.16;88.37;102867.03;4999523;28;19959;-71
2023/04/09 06:45:14;;;;;;;;;;;;;;;6.24;88.51;102873.06;5015626;28;19980;-72
2023/04/09 06:47:40;;;;;;;;;;;;;;;6.34;88.46;102866.59;4999096;28;19943;-70
2023/04/09 06:50:05;;;;;;;;;;;;;;;6.35;88.19;102868.25;4999369;28;19930;-71
2023/04/09 06:52:31;;;;;;;;;;;;;;;6.37;87.89;102866.22;5004297;28;19959;-72
2023/04/09 06:54:57;;;;;;;;;;;;;;;6.47;87.78;102869.41;5006079;28;19931;-72
2023/04/09 06:57:22;;;;;;;;;;;;;;;6.56;87.13;102863.75;5003220;28;19979;-71
2023/04/09 06:59:48;;;;;;;;;;;;;;;6.57;86.38;102865.41;4973829;28;19944;-70
2023/04/09 07:02:14;;;;;;;;;;;;;;;6.80;86.96;102869.69;5016544;28;20378;-73
2023/04/09 07:04:42;;;;;;;;;;;;;;;6.85;86.48;102869.97;4970974;28;19969;-72
2023/04/09 07:07:08;;;;;;;;;;;;;;;6.95;86.09;102874.94;4984554;28;20001;-71
2023/04/09 07:09:33;;;;;;;;;;;;;;;6.88;85.78;102863.41;4984405;28;20456;-72
2023/04/09 07:11:59;;;;;;;;;;;;;;;6.91;86.03;102871.00;5018912;28;19991;-72
2023/04/09 07:14:24;;;;;;;;;;;;;;;6.91;85.33;102868.34;4986591;28;19937;-73
2023/04/09 07:16:53;;;;;;;;;;;;;;;6.88;84.50;102868.75;4997383;28;20430;-73
2023/04/09 07:19:19;;;;;;;;;;;;;;;6.83;85.02;102869.31;4981511;28;19944;-72
2023/04/09 07:21:44;;;;;;;;;;;;;;;6.90;85.16;102866.69;4978586;28;19940;-71
2023/04/09 07:24:10;;;;;;;;;;;;;;;6.90;85.77;102869.34;4995300;28;19959;-71
2023/04/09 07:26:36;;;;;;;;;;;;;;;6.92;84.17;102870.00;5014279;28;19931;-69
2023/04/09 07:29:03;;;;;;;;;;;;;;;6.98;84.42;102866.56;4996810;28;19934;-71
2023/04/09 07:31:28;;;;;;;;;;;;;;;7.11;84.30;102872.81;5014477;28;19984;-72
2023/04/09 07:33:54;;;;;;;;;;;;;;;7.28;83.94;102872.50;4978190;28;20009;-70
2023/04/09 07:36:19;;;;;;;;;;;;;;;7.18;83.39;102878.19;4965139;28;19932;-71
2023/04/09 07:38:45;;;;;;;;;;;;;;;7.24;82.07;102877.41;4980326;28;20296;-71
2023/04/09 07:41:11;;;;;;;;;;;;;;;7.49;82.43;102883.09;4998356;28;20400;-71
2023/04/09 07:43:37;;;;;;;;;;;;;;;7.77;80.97;102872.34;4976295;28;19960;-71
2023/04/09 07:46:02;;;;;;;;;;;;;;;7.94;80.16;102875.50;5002485;28;20040;-70
2023/04/09 07:48:28;;;;;;;;;;;;;;;8.02;78.76;102874.50;5002493;28;20790;-73
2023/04/09 07:50:54;;;;;;;;;;;;;;;8.50;78.15;102874.44;4971697;28;19935;-73
2023/04/09 07:53:19;;;;;;;;;;;;;;;8.58;77.18;102871.56;5000482;28;19951;-72
2023/04/09 07:55:45;;;;;;;;;;;;;;;8.71;76.92;102867.06;5002535;28;19994;-73
2023/04/09 07:58:11;;;;;;;;;;;;;;;8.60;77.03;102878.38;4989924;28;20328;-73
2023/04/09 08:00:36;;;;;;;;;;;;;;;8.85;75.87;102867.06;4984729;28;20496;-72
2023/04/09 08:03:05;;;;;;;;;;;;;;;8.36;77.77;102873.59;4984915;28;19953;-72
2023/04/09 08:05:31;;;;;;;;;;;;;;;8.74;75.88;102865.84;5016773;28;19979;-71
2023/04/09 08:07:59;;;;;;;;;;;;;;;8.28;77.34;102869.25;5003751;28;19944;-72
2023/04/09 08:10:24;;;;;;;;;;;;;;;8.13;77.50;102873.94;5004661;28;19928;-71
2023/04/09 08:12:50;;;;;;;;;;;;;;;8.48;77.16;102870.13;4997530;28;19966;-73
2023/04/09 08:15:15;;;;;;;;;;;;;;;8.10;77.36;102879.66;5015142;28;19934;-74
2023/04/09 08:17:41;;;;;;;;;;;;;;;8.08;78.70;102879.06;5016378;28;20796;-71
2023/04/09 08:20:07;;;;;;;;;;;;;;;7.99;77.31;102872.22;4985221;28;19936;-73
2023/04/09 08:22:33;;;;;;;;;;;;;;;7.86;77.29;102873.84;4998751;28;19957;-71
2023/04/09 08:24:58;;;;;;;;;;;;;;;7.85;76.15;102872.19;4994242;28;19964;-71
2023/04/09 08:27:24;;;;;;;;;;;;;;;8.06;76.58;102873.06;4996069;28;19938;-71
2023/04/09 08:29:50;;;;;;;;;;;;;;;8.50;75.83;102869.09;4998809;28;20698;-72
2023/04/09 08:32:16;;;;;;;;;;;;;;;8.66;74.50;102871.38;5000068;28;19955;-73
2023/04/09 08:34:41;;;;;;;;;;;;;;;8.85;72.53;102862.53;5001019;28;20275;-73
2023/04/09 08:37:07;;;;;;;;;;;;;;;9.18;71.39;102862.50;4996216;28;19988;-75
2023/04/09 08:39:33;;;;;;;;;;;;;;;8.96;71.80;102864.59;4995545;28;20364;-72
2023/04/09 08:42:05;;;;;;;;;;;;;;;8.80;71.61;102865.00;5000480;28;19985;-73
2023/04/09 08:44:30;;;;;;;;;;;;;;;8.79;71.33;102862.53;4999686;28;19960;-73
2023/04/09 08:46:56;;;;;;;;;;;;;;;9.01;70.69;102866.66;4961539;28;19939;-71
2023/04/09 08:49:22;;;;;;;;;;;;;;;9.11;70.86;102861.69;4993144;28;20463;-73
2023/04/09 08:51:48;;;;;;;;;;;;;;;9.20;69.76;102859.63;5004117;28;20380;-73
2023/04/09 08:54:14;;;;;;;;;;;;;;;9.30;69.09;102863.53;5001051;28;20057;-72
2023/04/09 08:56:40;;;;;;;;;;;;;;;9.63;67.82;102864.47;4999673;28;19963;-72
2023/04/09 08:59:05;;;;;;;;;;;;;;;9.23;69.44;102864.56;5008579;28;20405;-72
2023/04/09 09:01:31;;;;;;;;;;;;;;;9.39;69.82;102866.78;5001419;28;19967;-72
2023/04/09 09:03:59;;;;;;;;;;;;;;;8.83;70.38;102861.94;5007845;28;19997;-71
2023/04/09 09:06:28;;;;;;;;;;;;;;;9.20;68.55;102865.78;5004825;28;20459;-74
2023/04/09 09:09:07;;;;;;;;;;;;;;;9.43;68.39;102870.69;4986320;28;19939;-72
2023/04/09 09:11:42;;;;;;;;;;;;;;;9.11;69.21;102868.91;4998847;28;19939;-72
2023/04/09 09:14:08;;;;;;;;;;;;;;;9.39;68.90;102868.63;4998205;28;20007;-73
2023/04/09 09:16:38;;;;;;;;;;;;;;;8.88;70.86;102877.34;4988759;28;19937;-73
2023/04/09 09:19:04;;;;;;;;;;;;;;;8.82;71.59;102876.31;5001853;28;19975;-73
2023/04/09 09:21:30;;;;;;;;;;;;;;;8.85;71.59;102862.53;4993012;28;20016;-72
2023/04/09 09:23:56;;;;;;;;;;;;;;;8.88;71.96;102867.47;4982793;28;19965;-73
2023/04/09 09:26:28;;;;;;;;;;;;;;;8.84;72.22;102871.59;4995655;28;20001;-72
2023/04/09 09:28:55;;;;;;;;;;;;;;;8.78;72.59;102871.59;5004599;28;19944;-74
2023/04/09 09:31:21;;;;;;;;;;;;;;;8.92;71.65;102868.69;5002824;28;19951;-73
2023/04/09 09:33:47;;;;;;;;;;;;;;;8.90;71.19;102867.28;5002839;28;19957;-70
2023/04/09 09:36:14;;;;;;;;;;;;;;;8.79;71.94;102878.56;5002675;28;19951;-72
2023/04/09 09:38:51;;;;;;;;;;;;;;;8.66;72.30;102879.38;4989537;28;19944;-74
2023/04/09 09:41:18;;;;;;;;;;;;;;;8.85;71.51;102870.56;4988056;28;20671;-74
2023/04/09 09:43:44;;;;;;;;;;;;;;;8.98;71.63;102873.22;5017999;28;20223;-74
2023/04/09 09:46:10;;;;;;;;;;;;;;;9.41;70.31;102862.03;5002754;28;20443;-72
2023/04/09 09:48:35;;;;;;;;;;;;;;;9.46;69.52;102869.44;5008920;28;19935;-75
2023/04/09 09:51:02;;;;;;;;;;;;;;;9.74;68.78;102866.47;5005884;28;20047;-72
2023/04/09 09:53:30;;;;;;;;;;;;;;;10.33;66.75;102868.84;4988222;28;20336;-71
2023/04/09 09:55:57;;;;;;;;;;;;;;;9.69;68.95;102874.31;5002728;28;20476;-72
2023/04/09 09:58:27;;;;;;;;;;;;;;;9.54;68.84;102861.19;5013086;28;19941;-73
2023/04/09 10:00:55;;;;;;;;;;;;;;;9.57;68.62;102871.47;5020838;28;19932;-71
2023/04/09 10:03:26;;;;;;;;;;;;;;;10.19;67.54;102866.44;5004634;28;20619;-72
2023/04/09 10:05:52;;;;;;;;;;;;;;;10.40;65.98;102855.44;5006521;28;19955;-73
2023/04/09 10:08:18;;;;;;;;;;;;;;;10.30;65.84;102855.91;5013151;28;20029;-76
2023/04/09 10:10:45;;;;;;;;;;;;;;;10.48;65.73;102854.34;4982750;28;19938;-74
2023/04/09 10:13:17;;;;;;;;;;;;;;;10.26;65.90;102848.53;4997658;28;20452;-72
2023/04/09 10:15:43;;;;;;;;;;;;;;;10.05;65.85;102858.50;4998336;28;19939;-73
2023/04/09 10:18:09;;;;;;;;;;;;;;;10.30;66.65;102855.09;4986625;28;19944;-71
2023/04/09 10:20:38;;;;;;;;;;;;;;;10.35;66.75;102848.03;4989349;28;19992;-73
2023/04/09 10:23:10;;;;;;;;;;;;;;;10.29;65.13;102850.75;5003966;28;20340;-75
2023/04/09 10:25:36;;;;;;;;;;;;;;;10.18;65.69;102860.28;4998180;28;19951;-72
2023/04/09 10:28:02;;;;;;;;;;;;;;;9.97;66.15;102845.38;5000372;28;19940;-72
2023/04/09 10:30:32;;;;;;;;;;;;;;;10.28;66.25;102841.06;5007032;28;20417;-74
2023/04/09 10:33:07;;;;;;;;;;;;;;;10.18;67.06;102841.53;4996109;28;20001;-73
2023/04/09 10:35:33;;;;;;;;;;;;;;;10.54;66.05;102846.25;4998643;28;20587;-72
2023/04/09 10:37:59;;;;;;;;;;;;;;;10.50;65.69;102836.19;4998387;28;19938;-73
2023/04/09 10:40:26;;;;;;;;;;;;;;;10.54;64.92;102846.25;5002026;28;19932;-72
2023/04/09 10:42:53;;;;;;;;;;;;;;;10.24;65.66;102850.59;5002892;28;20443;-73
2023/04/09 10:45:19;;;;;;;;;;;;;;;10.65;64.35;102844.75;4987225;28;20499;-72
2023/04/09 10:47:48;;;;;;;;;;;;;;;10.98;64.11;102847.13;4989364;28;19985;-72
2023/04/09 10:50:17;;;;;;;;;;;;;;;11.32;62.35;102836.88;4987775;28;20473;-74
2023/04/09 10:52:43;;;;;;;;;;;;;;;10.99;63.01;102840.72;4983773;28;19970;-72
2023/04/09 10:55:09;;;;;;;;;;;;;;;10.99;62.73;102839.91;5003452;28;19935;-73
2023/04/09 10:57:35;;;;;;;;;;;;;;;11.34;61.33;102840.97;4998160;28;20006;-74
2023/04/09 11:00:01;;;;;;;;;;;;;;;12.28;60.31;102825.31;5001623;28;19940;-74
2023/04/09 11:02:26;;;;;;;;;;;;;;;11.55;61.21;102826.28;4988140;28;19962;-72
2023/04/09 11:04:52;;;;;;;;;;;;;;;11.68;60.36;102820.75;5003854;28;19964;-74
2023/04/09 11:07:18;;;;;;;;;;;;;;;11.17;61.76;102831.84;4999476;28;19958;-72
2023/04/09 11:09:44;;;;;;;;;;;;;;;11.41;61.50;102830.97;5003028;28;20022;-73
2023/04/09 11:12:12;;;;;;;;;;;;;;;11.76;60.63;102831.16;5011898;28;20047;-73
2023/04/09 11:14:38;;;;;;;;;;;;;;;12.24;59.22;102821.44;4964475;28;20040;-72
2023/04/09 11:17:03;;;;;;;;;;;;;;;11.79;59.76;102826.41;4985932;28;20476;-73
2023/04/09 11:19:32;;;;;;;;;;;;;;;11.79;60.71;102827.22;4996540;28;19999;-73
2023/04/09 11:21:57;;;;;;;;;;;;;;;11.93;60.19;102827.91;5001140;28;20304;-72
2023/04/09 11:24:23;;;;;;;;;;;;;;;12.28;59.24;102818.06;4995437;28;19991;-73
2023/04/09 11:26:49;;;;;;;;;;;;;;;12.01;59.99;102819.50;4997661;28;20588;-72
2023/04/09 11:29:15;;;;;;;;;;;;;;;12.03;58.85;102818.22;4995837;28;19940;-73
2023/04/09 11:31:45;;;;;;;;;;;;;;;11.92;61.18;102815.50;4998767;28;19935;-73
2023/04/09 11:34:13;;;;;;;;;;;;;;;11.85;60.79;102814.78;4982709;28;20036;-72
2023/04/09 11:36:39;;;;;;;;;;;;;;;12.26;60.39;102812.13;5013020;28;19931;-72
2023/04/09 11:39:05;;;;;;;;;;;;;;;12.03;59.35;102810.19;4995900;28;20007;-72
2023/04/09 11:41:37;;;;;;;;;;;;;;;12.29;59.28;102800.91;4984333;28;19934;-72
2023/04/09 11:44:09;;;;;;;;;;;;;;;11.87;59.58;102810.81;4998442;28;19954;-74
2023/04/09 11:46:37;;;;;;;;;;;;;;;11.96;59.41;102805.94;4994814;28;19962;-73
2023/04/09 11:49:03;;;;;;;;;;;;;;;12.06;58.77;102808.91;4993234;28;20316;-72
2023/04/09 11:51:34;;;;;;;;;;;;;;;12.23;58.18;102793.75;4991989;28;20380;-73
2023/04/09 11:54:04;;;;;;;;;;;;;;;12.15;58.10;102791.41;4996801;28;19958;-74
2023/04/09 11:56:30;;;;;;;;;;;;;;;12.10;57.77;102795.84;5001320;28;19946;-73
2023/04/09 11:58:55;;;;;;;;;;;;;;;12.27;56.95;102797.63;4998558;28;20008;-73
2023/04/09 12:01:21;;;;;;;;;;;;;;;12.98;56.16;102797.66;5001055;28;19982;-73
2023/04/09 12:03:51;;;;;;;;;;;;;;;13.30;53.81;102790.84;5006656;28;20039;-72
2023/04/09 12:06:19;;;;;;;;;;;;;;;12.75;56.40;102783.19;4995247;28;20555;-72
2023/04/09 12:08:44;;;;;;;;;;;;;;;12.48;56.25;102790.06;5004556;28;19950;-73
2023/04/09 12:11:11;;;;;;;;;;;;;;;12.99;54.91;102783.97;4993528;28;20314;-71
2023/04/09 12:13:41;;;;;;;;;;;;;;;13.71;53.36;102780.88;4996137;28;19961;-72
2023/04/09 12:16:08;;;;;;;;;;;;;;;13.24;53.57;102781.03;5007065;28;19973;-72
2023/04/09 12:18:35;;;;;;;;;;;;;;;13.87;53.06;102782.78;4993433;28;21875;-72
2023/04/09 12:21:01;;;;;;;;;;;;;;;13.50;53.80;102781.56;4999432;28;19942;-71
2023/04/09 12:23:27;;;;;;;;;;;;;;;13.69;54.44;102777.63;4995714;28;19954;-72
2023/04/09 12:25:54;;;;;;;;;;;;;;;13.68;53.99;102778.66;5005642;28;20370;-73
2023/04/09 12:28:19;;;;;;;;;;;;;;;13.29;53.91;102778.47;4993076;28;20001;-75
2023/04/09 12:30:45;;;;;;;;;;;;;;;14.53;51.62;102766.13;4996160;28;20347;-73
2023/04/09 12:33:11;;;;;;;;;;;;;;;14.43;51.91;102772.97;5009099;28;20503;-71
2023/04/09 12:35:37;;;;;;;;;;;;;;;13.55;52.84;102781.66;5006647;28;20041;-72
2023/04/09 12:38:06;;;;;;;;;;;;;;;14.10;51.54;102764.88;5007528;28;19989;-72
2023/04/09 12:40:32;;;;;;;;;;;;;;;13.36;53.97;102767.56;5026169;28;19942;-73
2023/04/09 12:42:57;;;;;;;;;;;;;;;13.75;51.83;102760.50;5004243;28;19952;-73
2023/04/09 12:45:23;;;;;;;;;;;;;;;13.93;51.03;102760.28;5020783;28;20438;-72
2023/04/09 12:47:49;;;;;;;;;;;;;;;14.09;52.47;102755.97;4987221;28;19939;-72